Flight Track Log - Related Links

Times and Time Zones

All times are in EDT time to prevent confusion due to time zone crossing. See the RSP370 flight status page for this flight to view local times or setup timezone preferences in your user account.

Time Position Orientation Groundspeed Altitude Reporting Facility
EDT Latitude Longitude Course Direction KTS MPH feet Rate Location/Type
Tue 06:10:04 PM 40.8033 -111.9633 302° West 159 183 4,800  Level Salt Lake Center
Tue 06:11:23 PM 40.8403 -112.0417 302° West 214 246 6,600 1,535 Climbing Salt Lake Center
Tue 06:12:13 PM 40.8589 -112.1031 292° West 225 259 8,100 1,875 Climbing Salt Lake Center
Tue 06:13:15 PM 40.8853 -112.1825 294° West 234 269 10,100 1,659 Climbing Salt Lake Center
Tue 06:14:16 PM 40.8844 -112.2725 269° West 255 293 11,500 1,512 Climbing Salt Lake Center
Tue 06:15:18 PM 40.8781 -112.3650 265° West 254 292 13,200 1,645 Climbing Salt Lake Center
Tue 06:16:20 PM 40.8708 -112.4592 264° West 259 298 14,900 1,805 Climbing Salt Lake Center
Tue 06:17:21 PM 40.8644 -112.5533 265° West 257 296 16,900 1,951 Climbing Salt Lake Center
Tue 06:18:23 PM 40.8581 -112.6447 265° West 249 287 18,900 1,951 Climbing Salt Lake Center
Tue 06:19:24 PM 40.8489 -112.7567 264° West 257 296 20,900 1,805 Climbing Salt Lake Center
Tue 06:20:26 PM 40.8417 -112.8519 264° West 261 300 22,600 1,548 Climbing Salt Lake Center
Tue 06:21:28 PM 40.8417 -112.9489 270° West 264 304 24,100 1,366 Climbing Salt Lake Center
Tue 06:22:29 PM 40.8078 -113.0358 243° Southwest 270 311 25,400 1,268 Climbing Salt Lake Center
Tue 06:23:31 PM 40.7728 -113.1247 243° Southwest 275 316 26,700 1,258 Climbing Salt Lake Center
Tue 06:24:33 PM 40.7353 -113.2142 241° Southwest 280 322 28,000 1,268 Climbing Salt Lake Center
Tue 06:25:34 PM 40.6986 -113.3044 242° Southwest 281 323 29,300 1,366 Climbing Salt Lake Center
Tue 06:26:36 PM 40.6511 -113.4136 240° Southwest 285 328 30,800 1,366 Climbing Salt Lake Center
Tue 06:27:37 PM 40.6122 -113.5058 241° Southwest 288 331 32,100 1,268 Climbing Salt Lake Center
Tue 06:28:39 PM 40.5744 -113.5975 242° Southwest 285 328 33,400 919 Climbing Salt Lake Center
Tue 06:29:41 PM 40.5364 -113.6881 241° Southwest 284 327 34,000 293 Climbing Salt Lake Center
Tue 06:30:42 PM 40.4950 -113.7878 241° Southwest 308 354 34,000  Level Salt Lake Center
Tue 06:31:44 PM 40.4492 -113.8939 240° Southwest 330 380 34,000  Level Salt Lake Center
Tue 06:32:46 PM 40.4028 -114.0050 241° Southwest 344 396 34,000  Level Salt Lake Center
Tue 06:33:47 PM 40.3442 -114.1400 240° Southwest 355 409 34,000  Level Salt Lake Center
Tue 06:34:49 PM 40.2950 -114.2539 241° Southwest 359 413 34,000  Level Salt Lake Center
Tue 06:35:51 PM 40.2458 -114.3689 241° Southwest 361 415 34,000  Level Salt Lake Center
Tue 06:36:52 PM 40.1958 -114.4831 240° Southwest 360 414 34,000  Level Salt Lake Center
Tue 06:37:54 PM 40.1472 -114.5956 241° Southwest 358 412 34,000  Level Salt Lake Center
Tue 06:38:56 PM 40.1000 -114.7058 241° Southwest 351 404 34,000  Level Salt Lake Center
Tue 06:39:57 PM 40.0442 -114.8306 240° Southwest 351 404 34,000  Level Salt Lake Center
Tue 06:40:59 PM 39.9994 -114.9356 241° Southwest 348 400 34,000  Level Salt Lake Center
Tue 06:42:01 PM 39.9456 -115.0564 240° Southwest 345 397 34,000  Level Salt Lake Center
Tue 06:43:02 PM 39.8992 -115.1594 240° Southwest 344 396 34,000  Level Salt Lake Center
Tue 06:44:06 PM 39.8536 -115.2639 240° Southwest 345 397 34,000  Level Salt Lake Center
Tue 06:45:05 PM 39.7994 -115.3844 240° Southwest 346 398 34,000  Level Salt Lake Center
Tue 06:46:07 PM 39.7514 -115.4894 239° Southwest 352 405 34,000  Level Salt Lake Center
Tue 06:47:09 PM 39.6975 -115.6086 240° Southwest 342 394 34,000  Level Salt Lake Center
Tue 06:48:10 PM 39.6525 -115.7103 240° Southwest 340 391 34,000  Level Salt Lake Center
Tue 06:49:12 PM 39.6056 -115.8131 239° Southwest 344 396 34,000  Level Salt Lake Center
Tue 06:50:13 PM 39.5519 -115.9311 240° Southwest 340 391 34,000  Level Salt Lake Center
Tue 06:51:15 PM 39.5058 -116.0336 240° Southwest 342 394 34,000  Level Salt Lake Center
Tue 06:52:17 PM 39.4517 -116.1517 239° Southwest 342 394 34,000  Level Salt Lake Center
Tue 06:53:18 PM 39.4050 -116.2522 239° Southwest 340 391 34,000  Level Salt Lake Center
Tue 06:54:20 PM 39.3589 -116.3542 240° Southwest 342 394 34,000  Level Salt Lake Center
Tue 06:55:21 PM 39.3042 -116.4728 239° Southwest 343 395 34,000  Level Salt Lake Center
Tue 06:56:23 PM 39.2569 -116.5728 239° Southwest 340 391 34,000  Level Salt Lake Center
Tue 06:57:24 PM 39.2031 -116.6886 239° Southwest 337 388 34,000  Level Salt Lake Center
Tue 06:58:26 PM 39.1567 -116.7892 239° Southwest 339 390 34,000  Level Salt Lake Center
Tue 06:59:13 PM 39.1164 -116.8756 239° Southwest 343 395 34,000  Level Oakland Center
Tue 07:00:14 PM 39.0675 -116.9786 239° Southwest 341 392 34,000  Level Oakland Center
Tue 07:01:16 PM 39.0214 -117.0786 239° Southwest 343 395 34,000  Level Oakland Center
Tue 07:02:17 PM 38.9717 -117.1828 238° Southwest 342 394 34,000  Level Oakland Center
Tue 07:03:18 PM 38.9214 -117.2872 238° Southwest 343 395 34,000  Level Oakland Center
Tue 07:04:19 PM 38.8717 -117.3969 240° Southwest 343 395 34,000  Level Oakland Center
Tue 07:05:20 PM 38.8197 -117.5022 238° Southwest 349 402 34,000  Level Oakland Center
Tue 07:06:21 PM 38.7603 -117.6278 239° Southwest 346 398 34,000  Level Oakland Center
Tue 07:07:22 PM 38.7103 -117.7317 238° Southwest 345 397 34,000  Level Oakland Center
Tue 07:08:23 PM 38.6597 -117.8364 238° Southwest 348 400 34,000  Level Oakland Center
Tue 07:09:24 PM 38.6097 -117.9394 238° Southwest 344 396 34,000  Level Oakland Center
Tue 07:10:25 PM 38.5592 -118.0431 238° Southwest 344 396 34,000  Level Oakland Center
Tue 07:11:27 PM 38.5133 -118.1542 242° Southwest 347 399 34,000  Level Oakland Center
Tue 07:12:28 PM 38.4681 -118.2636 242° Southwest 348 400 34,000  Level Oakland Center
Tue 07:13:29 PM 38.4228 -118.3706 242° Southwest 342 394 34,000  Level Oakland Center
Tue 07:14:30 PM 38.3767 -118.4764 241° Southwest 342 394 34,000  Level Oakland Center
Tue 07:15:31 PM 38.3306 -118.5842 241° Southwest 345 397 34,000  Level Oakland Center
Tue 07:16:32 PM 38.2847 -118.6914 241° Southwest 345 397 34,000  Level Oakland Center
Tue 07:17:33 PM 38.2389 -118.7997 242° Southwest 346 398 34,000  Level Oakland Center
Tue 07:18:35 PM 38.1819 -118.9303 241° Southwest 352 405 34,000  Level Oakland Center
Tue 07:19:36 PM 38.1556 -119.0531 255° West 359 413 34,000  Level Oakland Center
Tue 07:20:37 PM 38.1361 -119.1653 258° West 358 412 34,000  Level Oakland Center
Tue 07:21:38 PM 38.1150 -119.2906 258° West 362 417 34,000  Level Oakland Center
Tue 07:22:39 PM 38.0936 -119.4136 258° West 358 412 34,000 -295 Level Oakland Center
Tue 07:23:40 PM 38.0714 -119.5400 257° West 365 420 33,400 -787 Descending Oakland Center
Tue 07:24:41 PM 38.0481 -119.6692 257° West 372 428 32,400 -1,279 Descending Oakland Center
Tue 07:25:42 PM 38.0222 -119.8117 257° West 348 400 30,800 -1,574 Descending Oakland Center
Tue 07:26:43 PM 38.0044 -119.9186 258° West 317 365 29,200 -1,623 Descending Oakland Center
Tue 07:27:44 PM 37.9836 -120.0236 256° West 308 354 27,500 -1,756 Descending Oakland Center
Tue 07:28:46 PM 37.9661 -120.1250 258° West 298 343 25,600 -1,707 Descending Oakland Center
Tue 07:29:47 PM 37.9472 -120.2242 256° West 292 336 24,000 -787 Descending Oakland Center
Tue 07:30:48 PM 37.9278 -120.3333 257° West 309 356 24,000  Level Oakland Center
Tue 07:31:49 PM 37.9064 -120.4533 257° West 336 387 24,000 -49 Level Oakland Center
Tue 07:32:50 PM 37.8822 -120.5800 256° West 357 411 23,900 -635 Descending Oakland Center
Tue 07:33:14 PM 37.8667 -120.6500 254° West 379 436 23,100 -1,571 Descending Northern Cal TRACON
Tue 07:34:14 PM 37.8667 -120.7667 270° West 370 426 21,700 -1,400 Descending Northern Cal TRACON
Tue 07:35:14 PM 37.8500 -120.8833 260° West 324 373 20,300 -1,000 Descending Northern Cal TRACON
Tue 07:36:14 PM 37.8500 -121.0167 270° West 337 388 19,700 -1,263 Descending Northern Cal TRACON
Tue 07:37:08 PM 37.8333 -121.1167 258° West 331 381 17,900 -1,950 Descending Northern Cal TRACON
Tue 07:38:14 PM 37.8000 -121.2500 252° West 397 457 15,800 -1,857 Descending Northern Cal TRACON
Tue 07:39:14 PM 37.7667 -121.3500 247° West 336 387 14,000 -1,800 Descending Northern Cal TRACON
Tue 07:40:14 PM 37.7333 -121.4500 247° West 330 380 12,200 -1,842 Descending Northern Cal TRACON
Tue 07:41:08 PM 37.7000 -121.5500 247° West 311 358 10,500 -1,789 Descending Northern Cal TRACON
Tue 07:42:08 PM 37.6667 -121.6333 243° Southwest 284 327 8,800 -1,857 Descending Northern Cal TRACON
Tue 07:43:14 PM 37.6667 -121.7333 270° West 279 321 6,600 -1,762 Descending Northern Cal TRACON
Tue 07:44:14 PM 37.6833 -121.8333 282° West 266 306 5,100 -873 Descending Northern Cal TRACON
Tue 07:45:04 PM 37.6894 -121.9006 277° West 267 307 5,000 -703 Descending Oakland Center
Tue 07:46:05 PM 37.6900 -121.9847 271° West 257 296 3,800 -934 Descending Oakland Center
Tue 07:47:06 PM 37.6881 -122.0483 268° West 224 258 3,100 -443 Descending Oakland Center
Tue 07:48:07 PM 37.6775 -122.0953 254° West 210 242 2,900 -852 Descending Oakland Center
Tue 07:50:09 PM 37.7167 -122.1833 299° West 112 129 500 -1,180 Descending Northern Cal TRACON
Tue 07:52:00 PM 37.7167 -122.2167 270° West  Level FlightAware Approximate
Tue 07:59:00 PM 37.7213 -122.2207 270° West  Level Estimated

Login

Don't have an account? Register now (free) for customized features, flight alerts, and more!